createdAt,value
2022-09-13T06:58:59.914Z,100895.94
2022-09-13T07:01:30.274Z,100891.94
2022-09-13T07:04:01.187Z,100889.41
2022-09-13T07:06:31.122Z,100897.41
2022-09-13T07:09:00.427Z,100896.16
2022-09-13T07:11:31.213Z,100885.06
2022-09-13T07:13:59.832Z,100876.13
2022-09-13T07:16:29.806Z,100894.66
2022-09-13T07:18:58.401Z,100890.94
2022-09-13T07:21:26.914Z,100898.19
2022-09-13T07:23:56.016Z,100900.06
2022-09-13T07:26:24.029Z,100902.88
2022-09-13T07:28:53.551Z,100904.59
2022-09-13T07:31:22.749Z,100897.34
2022-09-13T07:33:56.531Z,100911.44
2022-09-13T07:36:24.490Z,100909.72
2022-09-13T07:38:52.429Z,100909.63
2022-09-13T07:41:21.705Z,100913.03
2022-09-13T07:43:49.663Z,100918.31
2022-09-13T07:46:18.620Z,100914.16
2022-09-13T07:48:47.408Z,100920.69
2022-09-13T07:51:17.939Z,100905.91
2022-09-13T07:53:46.416Z,100905.97
2022-09-13T07:56:15.222Z,100923.00
2022-09-13T07:58:43.860Z,100934.47
2022-09-13T08:01:13.515Z,100922.13
2022-09-13T08:03:41.637Z,100914.88
2022-09-13T08:06:09.713Z,100910.00
2022-09-13T08:08:39.151Z,100913.38
2022-09-13T08:11:07.728Z,100917.19
2022-09-13T08:13:35.659Z,100913.63
2022-09-13T08:16:04.418Z,100925.03
2022-09-13T08:18:32.492Z,100913.38
2022-09-13T08:21:01.936Z,100913.22
2022-09-13T08:27:57.037Z,100947.97
2022-09-13T08:31:04.759Z,100949.94
2022-09-13T08:59:47.769Z,100958.47
2022-09-13T09:05:55.573Z,100959.94
2022-09-13T09:08:31.285Z,100965.06
2022-09-13T09:11:00.564Z,100958.59
2022-09-13T09:13:30.072Z,100959.94
2022-09-13T09:15:59.705Z,100963.28
2022-09-13T09:18:30.685Z,100962.69
2022-09-13T09:21:00.849Z,100959.88
2022-09-13T09:23:31.457Z,100967.47
2022-09-13T09:26:10.575Z,100959.38
2022-09-13T09:28:41.712Z,100957.91
2022-09-13T09:31:12.463Z,100952.50
2022-09-13T09:33:50.302Z,100958.16
2022-09-13T09:36:24.416Z,100956.28
2022-09-13T09:38:52.471Z,100958.91
2022-09-13T09:41:26.808Z,100956.94
2022-09-13T09:43:57.784Z,100960.00
2022-09-13T09:46:28.081Z,100962.19
2022-09-13T09:48:57.405Z,100960.47
2022-09-13T09:51:26.875Z,100955.28
2022-09-13T09:53:56.818Z,100962.41
2022-09-13T09:56:26.004Z,100945.72
2022-09-13T09:58:54.535Z,100953.84
2022-09-13T10:01:25.464Z,100953.56
2022-09-13T10:04:02.526Z,100956.06
2022-09-13T10:06:31.860Z,100951.63
2022-09-13T10:09:01.692Z,100949.78
2022-09-13T10:11:43.662Z,100918.38
2022-09-13T10:14:30.397Z,100954.78
2022-09-13T10:17:06.036Z,100946.94
2022-09-13T10:19:33.942Z,100939.41
2022-09-13T10:22:05.850Z,100942.09
2022-09-13T10:24:34.060Z,100925.56
2022-09-13T10:27:04.150Z,100911.69
2022-09-13T10:29:32.248Z,100944.66
2022-09-13T10:32:03.737Z,100948.97
2022-09-13T10:34:33.760Z,100948.81
2022-09-13T10:37:04.548Z,100958.53
2022-09-13T10:39:33.600Z,100954.94
2022-09-13T10:42:02.390Z,100952.50
2022-09-13T10:44:32.791Z,100954.94
2022-09-13T10:47:01.909Z,100947.56
2022-09-13T10:49:54.093Z,100948.75
2022-09-13T10:52:32.196Z,100952.44
2022-09-13T10:55:25.828Z,100964.50
2022-09-13T10:57:53.934Z,100960.94
2022-09-13T11:00:31.130Z,100969.13
2022-09-13T11:03:09.199Z,100977.72
2022-09-13T11:05:38.638Z,100969.34
2022-09-13T11:08:33.555Z,100975.13
2022-09-13T11:11:10.368Z,100967.84
2022-09-13T11:13:45.888Z,100967.72
2022-09-13T11:16:22.689Z,100963.63
2022-09-13T11:19:11.992Z,100967.19
2022-09-13T11:21:49.562Z,100970.38
2022-09-13T11:24:42.782Z,100949.97
2022-09-13T11:27:13.876Z,100958.81
2022-09-13T11:30:04.488Z,100958.72
2022-09-13T11:32:39.493Z,100959.44
2022-09-13T11:35:30.462Z,100959.56
2022-09-13T11:38:01.990Z,100960.44
2022-09-13T11:40:36.072Z,100967.59
2022-09-13T11:43:12.605Z,100956.88
2022-09-13T11:45:41.316Z,100965.00
2022-09-13T11:48:23.511Z,100971.84
2022-09-13T11:50:56.167Z,100968.59
2022-09-13T11:53:33.821Z,100967.78
2022-09-13T11:56:05.234Z,100956.50
2022-09-13T11:58:35.334Z,100955.34
2022-09-13T12:01:04.957Z,100953.25
2022-09-13T12:03:35.965Z,100954.84
2022-09-13T12:06:06.005Z,100936.44
2022-09-13T12:08:34.391Z,100970.41
2022-09-13T12:11:05.008Z,100969.69
2022-09-13T12:13:34.209Z,100962.69
2022-09-13T12:16:03.658Z,100969.13
2022-09-13T12:18:33.120Z,100973.84
2022-09-13T12:21:06.872Z,100967.09
2022-09-13T12:23:36.707Z,100967.69
2022-09-13T12:26:07.830Z,100962.66
2022-09-13T12:28:37.329Z,100964.28
2022-09-13T12:31:07.059Z,100963.00
2022-09-13T12:33:35.098Z,100965.28
2022-09-13T12:36:53.721Z,100943.56
2022-09-13T12:39:43.038Z,100961.13
2022-09-13T12:42:40.302Z,100963.84
2022-09-13T12:45:26.743Z,100961.56
2022-09-13T12:48:22.380Z,100973.69
2022-09-13T12:51:00.299Z,100964.56
2022-09-13T12:53:44.314Z,100962.41
2022-09-13T12:56:36.929Z,100957.53
2022-09-13T12:59:23.560Z,100960.28
2022-09-13T13:01:52.296Z,100952.69
2022-09-13T13:04:21.506Z,100962.13
2022-09-13T13:06:51.377Z,100948.88
2022-09-13T13:09:32.192Z,100959.00
2022-09-13T13:12:00.120Z,100964.13
2022-09-13T13:14:53.765Z,100952.84
2022-09-13T13:17:45.087Z,100951.81
2022-09-13T13:20:48.107Z,100955.22
2022-09-13T13:23:27.418Z,100955.47
2022-09-13T13:26:11.962Z,100940.38
2022-09-13T13:28:54.382Z,100940.66
2022-09-13T13:31:40.779Z,100941.78
2022-09-13T13:34:29.014Z,100938.09
2022-09-13T13:36:59.042Z,100943.78
2022-09-13T13:39:40.842Z,100945.78
2022-09-13T14:36:59.085Z,100908.88
2022-09-13T14:39:27.016Z,100911.69
2022-09-13T14:42:04.402Z,100910.69
2022-09-13T14:44:32.380Z,100916.00
2022-09-13T14:47:04.476Z,100911.00
2022-09-13T14:49:34.531Z,100902.25
2022-09-13T14:52:05.304Z,100920.06
2022-09-13T14:54:36.619Z,100908.81
2022-09-13T14:57:04.671Z,100908.38
2022-09-13T14:59:34.085Z,100901.09
2022-09-13T15:02:06.744Z,100909.34
2022-09-13T15:04:34.957Z,100902.09
2022-09-13T15:07:21.696Z,100912.22
2022-09-13T15:09:49.964Z,100917.06
2022-09-13T15:12:25.751Z,100906.50
2022-09-13T15:15:26.219Z,100912.91
2022-09-13T15:17:55.781Z,100910.91
2022-09-13T15:20:24.063Z,100917.19
2022-09-13T15:22:53.982Z,100905.59
2022-09-13T15:25:24.469Z,100912.16
2022-09-13T15:27:52.421Z,100879.44
2022-09-13T15:30:28.157Z,100909.88
2022-09-13T15:39:29.549Z,100904.13
2022-09-13T15:41:59.193Z,100898.97
2022-09-13T15:44:45.373Z,100898.81
2022-09-13T15:47:53.124Z,100898.09
2022-09-13T15:51:09.884Z,100896.53
2022-09-13T15:57:38.433Z,100886.25
2022-09-13T16:01:04.679Z,100889.50
2022-09-13T16:06:59.426Z,100886.19
2022-09-13T16:09:34.400Z,100872.75
2022-09-13T16:12:45.954Z,100875.22
2022-09-13T16:15:17.694Z,100862.50
2022-09-13T16:18:01.135Z,100873.63
2022-09-13T16:24:30.882Z,100870.16
2022-09-13T16:31:03.685Z,100861.53
2022-09-13T16:33:35.880Z,100851.72
2022-09-13T16:36:54.767Z,100857.41
2022-09-13T16:40:31.080Z,100862.34
2022-09-13T16:53:22.831Z,100844.75
2022-09-13T16:59:42.485Z,100850.16
2022-09-13T17:04:06.809Z,100855.47
2022-09-13T17:11:09.055Z,100838.06
2022-09-13T17:18:03.377Z,100843.47
2022-09-13T17:20:31.614Z,100836.47
2022-09-13T17:27:32.776Z,100848.63
2022-09-13T17:30:02.426Z,100846.03
2022-09-13T17:32:30.835Z,100851.19
2022-09-13T17:34:59.457Z,100843.94
2022-09-13T17:37:28.218Z,100832.06
2022-09-13T17:40:12.663Z,100812.22
2022-09-13T17:46:47.456Z,100850.72
2022-09-13T17:49:17.554Z,100837.00
2022-09-13T17:52:08.936Z,100844.97
2022-09-13T18:05:50.776Z,100841.84
2022-09-13T18:09:01.307Z,100838.31
2022-09-13T18:19:39.162Z,100843.94
2022-09-13T18:22:54.020Z,100849.44
2022-09-13T18:26:11.086Z,100845.28
2022-09-13T18:28:57.677Z,100842.09
2022-09-13T18:34:34.841Z,100840.78
2022-09-13T18:37:59.257Z,100846.06
2022-09-13T18:41:07.028Z,100848.16
2022-09-13T19:03:08.373Z,100848.97
2022-09-13T19:10:00.507Z,100847.75
2022-09-13T19:13:25.207Z,100848.63
2022-09-13T19:24:21.220Z,100854.63
2022-09-13T19:27:39.948Z,100861.97
2022-09-13T19:34:12.762Z,100855.13
2022-09-13T19:36:58.175Z,100858.06
2022-09-13T19:44:37.217Z,100861.88
2022-09-13T19:47:53.192Z,100861.88
2022-09-13T19:57:45.267Z,100870.06
2022-09-13T20:01:15.484Z,100868.59
2022-09-13T20:04:16.350Z,100862.84
2022-09-13T20:07:33.663Z,100870.06
2022-09-13T20:10:29.913Z,100874.97
2022-09-13T20:13:01.257Z,100871.41
2022-09-13T20:15:58.293Z,100873.88
2022-09-13T20:18:54.893Z,100870.81
2022-09-13T20:21:38.383Z,100876.56
2022-09-13T20:24:41.478Z,100874.72
2022-09-13T20:27:11.391Z,100873.00
2022-09-13T20:32:53.287Z,100870.06
2022-09-13T20:35:43.297Z,100865.53
2022-09-13T20:38:11.883Z,100870.66
2022-09-13T20:40:40.668Z,100856.97
2022-09-13T20:43:11.586Z,100860.41
2022-09-13T20:49:21.480Z,100864.94
2022-09-13T20:51:50.249Z,100863.47
2022-09-13T20:54:22.744Z,100851.19
2022-09-13T20:57:00.169Z,100868.72
2022-09-13T20:59:34.454Z,100868.09
2022-09-13T21:23:00.522Z,100884.28
2022-09-13T21:29:55.293Z,100886.25
2022-09-13T21:32:43.288Z,100881.72
2022-09-13T21:35:29.279Z,100879.84
2022-09-13T21:38:40.522Z,100881.72
2022-09-13T21:41:37.519Z,100880.13
2022-09-13T21:44:08.761Z,100870.31
2022-09-13T21:46:45.158Z,100872.03
2022-09-13T21:52:29.543Z,100871.16
2022-09-13T21:58:22.427Z,100868.47
2022-09-13T22:01:19.746Z,100870.19
2022-09-13T22:04:14.364Z,100855.22
2022-09-13T22:06:42.705Z,100854.50
2022-09-13T22:09:13.851Z,100863.06
2022-09-13T22:11:50.545Z,100861.97
2022-09-13T22:14:22.380Z,100863.81
2022-09-13T22:16:57.490Z,100865.53
2022-09-13T22:19:34.403Z,100843.97
2022-09-13T22:22:05.340Z,100862.94
2022-09-13T22:25:12.017Z,100865.53
2022-09-13T22:31:04.553Z,100866.63
2022-09-13T22:37:19.451Z,100861.47
2022-09-13T22:43:45.333Z,100860.75
2022-09-13T22:47:07.815Z,100862.72
2022-09-13T22:52:42.156Z,100862.72
2022-09-13T22:55:36.499Z,100867.38
2022-09-13T22:58:43.689Z,100865.78
2022-09-13T23:01:23.202Z,100867.59
2022-09-13T23:04:25.399Z,100864.16
2022-09-13T23:07:22.042Z,100865.28
2022-09-13T23:10:01.582Z,100866.13
2022-09-13T23:16:35.696Z,100867.00
2022-09-13T23:19:55.391Z,100860.59
2022-09-13T23:22:25.828Z,100853.50
2022-09-13T23:25:17.971Z,100854.25
2022-09-13T23:27:59.253Z,100866.28
2022-09-13T23:58:00.794Z,100844.56
